sensor_id;sensor_type;location;lat;lon;timestamp;temperature;humidity
5607;DHT22;2825;53.116;9.392;2022-07-31T00:01:57;17.90;99.90
5607;DHT22;2825;53.116;9.392;2022-07-31T00:04:23;17.90;99.90
5607;DHT22;2825;53.116;9.392;2022-07-31T00:06:50;18.00;99.90
5607;DHT22;2825;53.116;9.392;2022-07-31T00:09:15;17.90;99.90
5607;DHT22;2825;53.116;9.392;2022-07-31T00:11:41;17.90;99.90
5607;DHT22;2825;53.116;9.392;2022-07-31T00:14:09;17.90;99.90
5607;DHT22;2825;53.116;9.392;2022-07-31T00:16:34;17.80;99.90
5607;DHT22;2825;53.116;9.392;2022-07-31T00:19:00;17.80;99.90
5607;DHT22;2825;53.116;9.392;2022-07-31T00:21:26;17.80;99.90
5607;DHT22;2825;53.116;9.392;2022-07-31T00:23:51;17.80;99.90
5607;DHT22;2825;53.116;9.392;2022-07-31T00:26:17;17.80;99.90
5607;DHT22;2825;53.116;9.392;2022-07-31T00:28:43;17.80;99.90
5607;DHT22;2825;53.116;9.392;2022-07-31T00:31:10;17.70;99.90
5607;DHT22;2825;53.116;9.392;2022-07-31T00:33:35;17.70;99.90
5607;DHT22;2825;53.116;9.392;2022-07-31T00:36:01;17.70;99.90
5607;DHT22;2825;53.116;9.392;2022-07-31T00:38:27;17.70;99.90
5607;DHT22;2825;53.116;9.392;2022-07-31T00:40:53;17.70;99.90
5607;DHT22;2825;53.116;9.392;2022-07-31T00:43:19;17.70;99.90
5607;DHT22;2825;53.116;9.392;2022-07-31T00:45:45;17.70;99.90
5607;DHT22;2825;53.116;9.392;2022-07-31T00:48:11;17.60;99.90
5607;DHT22;2825;53.116;9.392;2022-07-31T00:50:37;17.60;99.90
5607;DHT22;2825;53.116;9.392;2022-07-31T00:53:03;17.50;99.90
5607;DHT22;2825;53.116;9.392;2022-07-31T00:55:29;17.50;99.90
5607;DHT22;2825;53.116;9.392;2022-07-31T00:57:56;17.50;99.90
5607;DHT22;2825;53.116;9.392;2022-07-31T01:00:22;17.50;99.90
5607;DHT22;2825;53.116;9.392;2022-07-31T01:02:48;17.50;99.90
5607;DHT22;2825;53.116;9.392;2022-07-31T01:05:14;17.50;99.90
5607;DHT22;2825;53.116;9.392;2022-07-31T01:07:44;17.50;99.90
5607;DHT22;2825;53.116;9.392;2022-07-31T01:10:14;17.40;99.90
5607;DHT22;2825;53.116;9.392;2022-07-31T01:12:52;17.40;99.90
5607;DHT22;2825;53.116;9.392;2022-07-31T01:15:19;17.40;99.90
5607;DHT22;2825;53.116;9.392;2022-07-31T01:17:47;17.30;99.90
5607;DHT22;2825;53.116;9.392;2022-07-31T01:20:14;17.30;99.90
5607;DHT22;2825;53.116;9.392;2022-07-31T01:28:59;17.20;99.90
5607;DHT22;2825;53.116;9.392;2022-07-31T01:31:34;17.10;99.90
5607;DHT22;2825;53.116;9.392;2022-07-31T01:36:46;17.10;99.90
5607;DHT22;2825;53.116;9.392;2022-07-31T01:39:14;17.10;99.90
5607;DHT22;2825;53.116;9.392;2022-07-31T01:41:42;17.10;99.90
5607;DHT22;2825;53.116;9.392;2022-07-31T01:44:12;17.10;99.90
5607;DHT22;2825;53.116;9.392;2022-07-31T01:46:41;17.10;99.90
5607;DHT22;2825;53.116;9.392;2022-07-31T01:49:08;17.10;99.90
5607;DHT22;2825;53.116;9.392;2022-07-31T01:51:36;17.10;99.90
5607;DHT22;2825;53.116;9.392;2022-07-31T01:54:04;17.10;99.90
5607;DHT22;2825;53.116;9.392;2022-07-31T01:56:31;17.10;99.90
5607;DHT22;2825;53.116;9.392;2022-07-31T01:58:58;17.10;99.90
5607;DHT22;2825;53.116;9.392;2022-07-31T02:01:26;17.10;99.90
5607;DHT22;2825;53.116;9.392;2022-07-31T02:03:54;17.10;99.90
5607;DHT22;2825;53.116;9.392;2022-07-31T02:06:22;17.10;99.90
5607;DHT22;2825;53.116;9.392;2022-07-31T02:08:50;17.00;99.90
5607;DHT22;2825;53.116;9.392;2022-07-31T02:11:18;17.00;99.90
5607;DHT22;2825;53.116;9.392;2022-07-31T02:13:48;17.00;99.90
5607;DHT22;2825;53.116;9.392;2022-07-31T02:16:17;17.00;99.90
5607;DHT22;2825;53.116;9.392;2022-07-31T02:18:46;17.00;99.90
5607;DHT22;2825;53.116;9.392;2022-07-31T02:21:13;16.90;99.90
5607;DHT22;2825;53.116;9.392;2022-07-31T02:23:39;16.80;99.90
5607;DHT22;2825;53.116;9.392;2022-07-31T02:26:06;16.70;99.90
5607;DHT22;2825;53.116;9.392;2022-07-31T02:28:34;16.80;99.90
5607;DHT22;2825;53.116;9.392;2022-07-31T02:31:02;16.70;99.90
5607;DHT22;2825;53.116;9.392;2022-07-31T02:33:28;16.70;99.90
5607;DHT22;2825;53.116;9.392;2022-07-31T02:35:55;16.60;99.90
5607;DHT22;2825;53.116;9.392;2022-07-31T02:38:25;16.60;99.90
5607;DHT22;2825;53.116;9.392;2022-07-31T02:40:55;16.60;99.90
5607;DHT22;2825;53.116;9.392;2022-07-31T02:43:23;16.60;99.90
5607;DHT22;2825;53.116;9.392;2022-07-31T02:45:49;16.70;99.90
5607;DHT22;2825;53.116;9.392;2022-07-31T02:48:15;16.70;99.90
5607;DHT22;2825;53.116;9.392;2022-07-31T02:50:41;16.70;99.90
5607;DHT22;2825;53.116;9.392;2022-07-31T02:53:07;16.70;99.90
5607;DHT22;2825;53.116;9.392;2022-07-31T02:55:34;16.60;99.90
5607;DHT22;2825;53.116;9.392;2022-07-31T02:58:01;16.70;99.90
5607;DHT22;2825;53.116;9.392;2022-07-31T03:00:28;16.70;99.90
5607;DHT22;2825;53.116;9.392;2022-07-31T03:02:55;16.70;99.90
5607;DHT22;2825;53.116;9.392;2022-07-31T03:05:21;16.60;99.90
5607;DHT22;2825;53.116;9.392;2022-07-31T03:07:47;16.60;99.90
5607;DHT22;2825;53.116;9.392;2022-07-31T03:10:13;16.70;99.90
5607;DHT22;2825;53.116;9.392;2022-07-31T03:12:40;16.70;99.90
5607;DHT22;2825;53.116;9.392;2022-07-31T03:15:09;16.70;99.90
5607;DHT22;2825;53.116;9.392;2022-07-31T03:17:39;16.70;99.90
5607;DHT22;2825;53.116;9.392;2022-07-31T03:20:07;16.70;99.90
5607;DHT22;2825;53.116;9.392;2022-07-31T03:22:33;16.70;99.90
5607;DHT22;2825;53.116;9.392;2022-07-31T03:25:00;16.70;99.90
5607;DHT22;2825;53.116;9.392;2022-07-31T03:27:27;16.70;99.90
5607;DHT22;2825;53.116;9.392;2022-07-31T03:29:52;16.70;99.90
5607;DHT22;2825;53.116;9.392;2022-07-31T03:32:22;16.70;99.90
5607;DHT22;2825;53.116;9.392;2022-07-31T03:34:48;16.70;99.90
5607;DHT22;2825;53.116;9.392;2022-07-31T03:37:13;16.70;99.90
5607;DHT22;2825;53.116;9.392;2022-07-31T03:39:39;16.70;99.90
5607;DHT22;2825;53.116;9.392;2022-07-31T03:42:09;16.60;99.90
5607;DHT22;2825;53.116;9.392;2022-07-31T03:44:37;16.60;99.90
5607;DHT22;2825;53.116;9.392;2022-07-31T03:47:04;16.50;99.90
5607;DHT22;2825;53.116;9.392;2022-07-31T03:49:30;16.50;99.90
5607;DHT22;2825;53.116;9.392;2022-07-31T03:51:57;16.60;99.90
5607;DHT22;2825;53.116;9.392;2022-07-31T03:54:23;16.60;99.90
5607;DHT22;2825;53.116;9.392;2022-07-31T03:56:51;16.60;99.90
5607;DHT22;2825;53.116;9.392;2022-07-31T03:59:19;16.60;99.90
5607;DHT22;2825;53.116;9.392;2022-07-31T04:01:46;16.60;99.90
5607;DHT22;2825;53.116;9.392;2022-07-31T04:04:12;16.70;99.90
5607;DHT22;2825;53.116;9.392;2022-07-31T04:06:38;16.60;99.90
5607;DHT22;2825;53.116;9.392;2022-07-31T04:09:05;16.60;99.90
5607;DHT22;2825;53.116;9.392;2022-07-31T04:11:30;16.50;99.90
5607;DHT22;2825;53.116;9.392;2022-07-31T04:13:57;16.50;99.90
5607;DHT22;2825;53.116;9.392;2022-07-31T04:16:23;16.50;99.90
5607;DHT22;2825;53.116;9.392;2022-07-31T04:18:49;16.60;99.90
5607;DHT22;2825;53.116;9.392;2022-07-31T04:21:15;16.60;99.90
5607;DHT22;2825;53.116;9.392;2022-07-31T04:23:41;16.60;99.90
5607;DHT22;2825;53.116;9.392;2022-07-31T04:26:06;16.60;99.90
5607;DHT22;2825;53.116;9.392;2022-07-31T04:28:32;16.60;99.90
5607;DHT22;2825;53.116;9.392;2022-07-31T04:30:58;16.60;99.90
5607;DHT22;2825;53.116;9.392;2022-07-31T04:33:24;16.60;99.90
5607;DHT22;2825;53.116;9.392;2022-07-31T04:35:51;16.70;99.90
5607;DHT22;2825;53.116;9.392;2022-07-31T04:38:17;16.70;99.90
5607;DHT22;2825;53.116;9.392;2022-07-31T04:40:43;16.70;99.90
5607;DHT22;2825;53.116;9.392;2022-07-31T04:43:09;16.70;99.90
5607;DHT22;2825;53.116;9.392;2022-07-31T04:45:37;16.70;99.90
5607;DHT22;2825;53.116;9.392;2022-07-31T04:48:03;16.70;99.90
5607;DHT22;2825;53.116;9.392;2022-07-31T04:50:28;16.70;99.90
5607;DHT22;2825;53.116;9.392;2022-07-31T04:52:54;16.80;99.90
5607;DHT22;2825;53.116;9.392;2022-07-31T04:55:20;16.80;99.90
5607;DHT22;2825;53.116;9.392;2022-07-31T04:57:46;16.80;99.90
5607;DHT22;2825;53.116;9.392;2022-07-31T05:00:12;16.80;99.90
5607;DHT22;2825;53.116;9.392;2022-07-31T05:02:38;16.80;99.90
5607;DHT22;2825;53.116;9.392;2022-07-31T05:05:05;16.80;99.90
5607;DHT22;2825;53.116;9.392;2022-07-31T05:07:31;16.80;99.90
5607;DHT22;2825;53.116;9.392;2022-07-31T05:09:57;16.80;99.90
5607;DHT22;2825;53.116;9.392;2022-07-31T05:12:23;16.80;99.90
5607;DHT22;2825;53.116;9.392;2022-07-31T05:14:48;16.80;99.90
5607;DHT22;2825;53.116;9.392;2022-07-31T05:17:14;16.80;99.90
5607;DHT22;2825;53.116;9.392;2022-07-31T05:19:40;16.80;99.90
5607;DHT22;2825;53.116;9.392;2022-07-31T05:22:06;16.80;99.90
5607;DHT22;2825;53.116;9.392;2022-07-31T05:24:31;16.90;99.90
5607;DHT22;2825;53.116;9.392;2022-07-31T05:26:57;16.90;99.90
5607;DHT22;2825;53.116;9.392;2022-07-31T05:29:23;16.90;99.90
5607;DHT22;2825;53.116;9.392;2022-07-31T05:31:48;16.80;99.90
5607;DHT22;2825;53.116;9.392;2022-07-31T05:34:14;16.80;99.90
5607;DHT22;2825;53.116;9.392;2022-07-31T05:36:40;16.90;99.90
5607;DHT22;2825;53.116;9.392;2022-07-31T05:39:06;16.90;99.90
5607;DHT22;2825;53.116;9.392;2022-07-31T05:41:34;17.00;99.90
5607;DHT22;2825;53.116;9.392;2022-07-31T05:44:00;17.00;99.90
5607;DHT22;2825;53.116;9.392;2022-07-31T05:46:26;17.00;99.90
5607;DHT22;2825;53.116;9.392;2022-07-31T05:48:51;17.10;99.90
5607;DHT22;2825;53.116;9.392;2022-07-31T05:51:17;17.10;99.90
5607;DHT22;2825;53.116;9.392;2022-07-31T05:53:43;17.10;99.90
5607;DHT22;2825;53.116;9.392;2022-07-31T05:56:09;17.20;99.90
5607;DHT22;2825;53.116;9.392;2022-07-31T05:58:35;17.30;99.90
5607;DHT22;2825;53.116;9.392;2022-07-31T06:01:01;17.30;99.90
5607;DHT22;2825;53.116;9.392;2022-07-31T06:03:27;17.40;99.90
5607;DHT22;2825;53.116;9.392;2022-07-31T06:05:54;17.40;99.90
5607;DHT22;2825;53.116;9.392;2022-07-31T06:08:20;17.50;99.90
5607;DHT22;2825;53.116;9.392;2022-07-31T06:10:46;17.50;99.90
5607;DHT22;2825;53.116;9.392;2022-07-31T06:13:12;17.50;99.90
5607;DHT22;2825;53.116;9.392;2022-07-31T06:15:40;17.50;99.90
5607;DHT22;2825;53.116;9.392;2022-07-31T06:18:06;17.40;99.90
5607;DHT22;2825;53.116;9.392;2022-07-31T06:20:32;17.50;99.90
5607;DHT22;2825;53.116;9.392;2022-07-31T06:22:58;17.50;99.90
5607;DHT22;2825;53.116;9.392;2022-07-31T06:25:24;17.60;99.90
5607;DHT22;2825;53.116;9.392;2022-07-31T06:27:50;17.60;99.90
5607;DHT22;2825;53.116;9.392;2022-07-31T06:30:16;17.70;99.90
5607;DHT22;2825;53.116;9.392;2022-07-31T06:32:42;17.80;99.90
5607;DHT22;2825;53.116;9.392;2022-07-31T06:35:08;17.90;99.90
5607;DHT22;2825;53.116;9.392;2022-07-31T06:37:34;17.90;99.90
5607;DHT22;2825;53.116;9.392;2022-07-31T06:40:00;18.00;99.90
5607;DHT22;2825;53.116;9.392;2022-07-31T06:42:26;18.00;99.90
5607;DHT22;2825;53.116;9.392;2022-07-31T06:44:52;18.10;99.90
5607;DHT22;2825;53.116;9.392;2022-07-31T06:47:22;18.20;99.90
5607;DHT22;2825;53.116;9.392;2022-07-31T06:49:49;18.30;99.90
5607;DHT22;2825;53.116;9.392;2022-07-31T06:52:15;18.40;99.90
5607;DHT22;2825;53.116;9.392;2022-07-31T06:54:41;18.40;99.90
5607;DHT22;2825;53.116;9.392;2022-07-31T06:57:09;18.50;99.90
5607;DHT22;2825;53.116;9.392;2022-07-31T06:59:35;18.50;99.90
5607;DHT22;2825;53.116;9.392;2022-07-31T07:02:01;18.60;99.90
5607;DHT22;2825;53.116;9.392;2022-07-31T07:04:27;18.60;99.90
5607;DHT22;2825;53.116;9.392;2022-07-31T07:06:52;18.70;99.90
5607;DHT22;2825;53.116;9.392;2022-07-31T07:09:18;18.70;99.90
5607;DHT22;2825;53.116;9.392;2022-07-31T07:11:44;18.80;99.90
5607;DHT22;2825;53.116;9.392;2022-07-31T07:14:12;18.90;99.90
5607;DHT22;2825;53.116;9.392;2022-07-31T07:16:38;19.00;99.90
5607;DHT22;2825;53.116;9.392;2022-07-31T07:19:03;19.10;99.90
5607;DHT22;2825;53.116;9.392;2022-07-31T07:21:29;19.20;99.90
5607;DHT22;2825;53.116;9.392;2022-07-31T07:23:55;19.20;99.90
5607;DHT22;2825;53.116;9.392;2022-07-31T07:26:21;19.30;99.90
5607;DHT22;2825;53.116;9.392;2022-07-31T07:28:47;19.40;99.90
5607;DHT22;2825;53.116;9.392;2022-07-31T07:31:12;19.50;99.90
5607;DHT22;2825;53.116;9.392;2022-07-31T07:33:38;19.60;99.90
5607;DHT22;2825;53.116;9.392;2022-07-31T07:36:04;19.70;99.90
5607;DHT22;2825;53.116;9.392;2022-07-31T07:38:30;19.80;99.90
5607;DHT22;2825;53.116;9.392;2022-07-31T07:40:55;19.90;99.90
5607;DHT22;2825;53.116;9.392;2022-07-31T07:43:21;20.00;99.90
5607;DHT22;2825;53.116;9.392;2022-07-31T07:45:47;20.20;99.90
5607;DHT22;2825;53.116;9.392;2022-07-31T07:48:13;20.30;99.90
5607;DHT22;2825;53.116;9.392;2022-07-31T07:50:39;20.40;99.90
5607;DHT22;2825;53.116;9.392;2022-07-31T07:53:05;20.50;99.90
5607;DHT22;2825;53.116;9.392;2022-07-31T07:55:31;20.60;99.90
5607;DHT22;2825;53.116;9.392;2022-07-31T07:57:57;20.60;99.90
5607;DHT22;2825;53.116;9.392;2022-07-31T08:00:23;20.70;99.90
5607;DHT22;2825;53.116;9.392;2022-07-31T08:02:48;20.90;99.90
5607;DHT22;2825;53.116;9.392;2022-07-31T08:05:15;21.10;99.90
5607;DHT22;2825;53.116;9.392;2022-07-31T08:07:41;21.10;99.90
5607;DHT22;2825;53.116;9.392;2022-07-31T08:10:08;21.20;99.90
5607;DHT22;2825;53.116;9.392;2022-07-31T08:12:34;21.30;99.90
5607;DHT22;2825;53.116;9.392;2022-07-31T08:15:00;21.40;99.90
5607;DHT22;2825;53.116;9.392;2022-07-31T08:17:27;21.50;99.90
5607;DHT22;2825;53.116;9.392;2022-07-31T08:19:53;21.50;99.90
5607;DHT22;2825;53.116;9.392;2022-07-31T08:22:18;21.60;99.90
5607;DHT22;2825;53.116;9.392;2022-07-31T08:24:44;21.70;99.90
5607;DHT22;2825;53.116;9.392;2022-07-31T08:27:12;21.70;99.90
5607;DHT22;2825;53.116;9.392;2022-07-31T08:29:55;21.70;99.90
5607;DHT22;2825;53.116;9.392;2022-07-31T08:32:21;21.70;99.90
5607;DHT22;2825;53.116;9.392;2022-07-31T08:34:47;21.80;99.90
5607;DHT22;2825;53.116;9.392;2022-07-31T08:37:13;21.80;99.90
5607;DHT22;2825;53.116;9.392;2022-07-31T08:39:39;21.80;99.90
5607;DHT22;2825;53.116;9.392;2022-07-31T08:42:09;21.80;99.90
5607;DHT22;2825;53.116;9.392;2022-07-31T08:44:39;21.80;99.90
5607;DHT22;2825;53.116;9.392;2022-07-31T08:47:10;21.80;99.90
5607;DHT22;2825;53.116;9.392;2022-07-31T08:49:46;21.90;99.90
5607;DHT22;2825;53.116;9.392;2022-07-31T08:52:20;22.00;99.90
5607;DHT22;2825;53.116;9.392;2022-07-31T08:54:49;22.10;99.90
5607;DHT22;2825;53.116;9.392;2022-07-31T08:57:15;22.20;99.90
5607;DHT22;2825;53.116;9.392;2022-07-31T08:59:42;22.20;99.90
5607;DHT22;2825;53.116;9.392;2022-07-31T09:02:12;22.30;99.90
5607;DHT22;2825;53.116;9.392;2022-07-31T09:04:40;22.30;99.90
5607;DHT22;2825;53.116;9.392;2022-07-31T09:07:09;22.40;99.90
5607;DHT22;2825;53.116;9.392;2022-07-31T09:09:35;22.40;99.90
5607;DHT22;2825;53.116;9.392;2022-07-31T09:12:01;22.40;99.90
5607;DHT22;2825;53.116;9.392;2022-07-31T09:14:29;22.50;99.90
5607;DHT22;2825;53.116;9.392;2022-07-31T09:16:57;22.50;99.90
5607;DHT22;2825;53.116;9.392;2022-07-31T09:19:34;22.60;99.90
5607;DHT22;2825;53.116;9.392;2022-07-31T09:22:00;22.70;99.90
5607;DHT22;2825;53.116;9.392;2022-07-31T09:24:28;22.80;99.90
5607;DHT22;2825;53.116;9.392;2022-07-31T09:27:08;22.80;99.90
5607;DHT22;2825;53.116;9.392;2022-07-31T09:29:41;22.80;99.90
5607;DHT22;2825;53.116;9.392;2022-07-31T09:34:34;23.00;99.90
5607;DHT22;2825;53.116;9.392;2022-07-31T09:37:14;23.10;99.90
5607;DHT22;2825;53.116;9.392;2022-07-31T09:39:40;23.20;99.90
5607;DHT22;2825;53.116;9.392;2022-07-31T09:42:07;23.40;99.90
5607;DHT22;2825;53.116;9.392;2022-07-31T09:44:41;23.50;99.90
5607;DHT22;2825;53.116;9.392;2022-07-31T09:47:19;23.50;99.90
5607;DHT22;2825;53.116;9.392;2022-07-31T09:49:51;23.60;99.90
5607;DHT22;2825;53.116;9.392;2022-07-31T09:52:18;23.70;99.90
5607;DHT22;2825;53.116;9.392;2022-07-31T09:54:44;23.80;99.90
5607;DHT22;2825;53.116;9.392;2022-07-31T09:57:12;23.90;99.90
5607;DHT22;2825;53.116;9.392;2022-07-31T09:59:38;24.10;99.90
5607;DHT22;2825;53.116;9.392;2022-07-31T10:02:06;24.30;99.90
5607;DHT22;2825;53.116;9.392;2022-07-31T10:04:34;24.50;99.90
5607;DHT22;2825;53.116;9.392;2022-07-31T10:07:01;24.70;99.90
5607;DHT22;2825;53.116;9.392;2022-07-31T10:09:28;24.80;99.90
5607;DHT22;2825;53.116;9.392;2022-07-31T10:11:55;24.80;99.90
5607;DHT22;2825;53.116;9.392;2022-07-31T10:14:33;24.80;99.90
5607;DHT22;2825;53.116;9.392;2022-07-31T10:17:01;24.90;99.90
5607;DHT22;2825;53.116;9.392;2022-07-31T10:19:33;25.10;99.90
5607;DHT22;2825;53.116;9.392;2022-07-31T10:22:03;25.30;99.90
5607;DHT22;2825;53.116;9.392;2022-07-31T10:24:35;25.50;99.90
5607;DHT22;2825;53.116;9.392;2022-07-31T10:27:04;25.60;99.90
5607;DHT22;2825;53.116;9.392;2022-07-31T10:29:31;25.70;99.90
5607;DHT22;2825;53.116;9.392;2022-07-31T10:31:57;25.80;99.90
5607;DHT22;2825;53.116;9.392;2022-07-31T10:34:24;26.00;99.90
5607;DHT22;2825;53.116;9.392;2022-07-31T10:36:53;26.00;99.90
5607;DHT22;2825;53.116;9.392;2022-07-31T10:42:16;26.10;99.90
5607;DHT22;2825;53.116;9.392;2022-07-31T10:44:49;26.10;99.90
5607;DHT22;2825;53.116;9.392;2022-07-31T10:47:16;26.00;99.90
5607;DHT22;2825;53.116;9.392;2022-07-31T10:49:47;25.80;99.90
5607;DHT22;2825;53.116;9.392;2022-07-31T10:52:33;25.70;99.90
5607;DHT22;2825;53.116;9.392;2022-07-31T10:54:59;25.70;99.90
5607;DHT22;2825;53.116;9.392;2022-07-31T10:57:31;25.80;99.90
5607;DHT22;2825;53.116;9.392;2022-07-31T11:00:17;25.80;99.90
5607;DHT22;2825;53.116;9.392;2022-07-31T11:02:47;25.90;99.90
5607;DHT22;2825;53.116;9.392;2022-07-31T11:05:19;25.90;99.90
5607;DHT22;2825;53.116;9.392;2022-07-31T11:07:59;25.80;99.90
5607;DHT22;2825;53.116;9.392;2022-07-31T11:10:25;25.70;99.90
5607;DHT22;2825;53.116;9.392;2022-07-31T11:13:04;25.60;99.90
5607;DHT22;2825;53.116;9.392;2022-07-31T11:15:31;25.60;99.90
5607;DHT22;2825;53.116;9.392;2022-07-31T11:17:58;25.50;99.90
5607;DHT22;2825;53.116;9.392;2022-07-31T11:20:29;25.50;99.90
5607;DHT22;2825;53.116;9.392;2022-07-31T11:23:03;25.50;99.90
5607;DHT22;2825;53.116;9.392;2022-07-31T11:25:30;25.50;99.90
5607;DHT22;2825;53.116;9.392;2022-07-31T11:30:51;25.30;99.90
5607;DHT22;2825;53.116;9.392;2022-07-31T11:33:36;25.30;99.90
5607;DHT22;2825;53.116;9.392;2022-07-31T11:36:14;25.40;99.90
5607;DHT22;2825;53.116;9.392;2022-07-31T11:38:43;25.40;99.90
5607;DHT22;2825;53.116;9.392;2022-07-31T11:41:09;25.30;99.90
5607;DHT22;2825;53.116;9.392;2022-07-31T11:43:36;25.50;99.90
5607;DHT22;2825;53.116;9.392;2022-07-31T11:46:04;25.50;99.90
5607;DHT22;2825;53.116;9.392;2022-07-31T11:48:30;25.50;99.90
5607;DHT22;2825;53.116;9.392;2022-07-31T11:50:58;25.40;99.90
5607;DHT22;2825;53.116;9.392;2022-07-31T11:53:25;25.50;99.90
5607;DHT22;2825;53.116;9.392;2022-07-31T11:55:53;25.60;99.90
5607;DHT22;2825;53.116;9.392;2022-07-31T11:58:21;25.70;99.90
5607;DHT22;2825;53.116;9.392;2022-07-31T12:01:01;25.80;99.90
5607;DHT22;2825;53.116;9.392;2022-07-31T12:03:33;25.90;99.90
5607;DHT22;2825;53.116;9.392;2022-07-31T12:05:59;25.90;99.90
5607;DHT22;2825;53.116;9.392;2022-07-31T12:08:26;26.00;99.90
5607;DHT22;2825;53.116;9.392;2022-07-31T12:10:53;26.00;99.90
5607;DHT22;2825;53.116;9.392;2022-07-31T12:13:20;26.20;99.90
5607;DHT22;2825;53.116;9.392;2022-07-31T12:18:26;26.30;99.90
5607;DHT22;2825;53.116;9.392;2022-07-31T12:20:57;26.30;99.90
5607;DHT22;2825;53.116;9.392;2022-07-31T12:23:24;26.40;99.90
5607;DHT22;2825;53.116;9.392;2022-07-31T12:25:51;26.40;99.90
5607;DHT22;2825;53.116;9.392;2022-07-31T12:28:17;26.50;99.90
5607;DHT22;2825;53.116;9.392;2022-07-31T12:30:44;26.50;99.90
5607;DHT22;2825;53.116;9.392;2022-07-31T12:33:11;26.60;99.90
5607;DHT22;2825;53.116;9.392;2022-07-31T12:35:42;26.70;99.90
5607;DHT22;2825;53.116;9.392;2022-07-31T12:38:08;26.80;99.90
5607;DHT22;2825;53.116;9.392;2022-07-31T12:40:35;26.70;99.90
5607;DHT22;2825;53.116;9.392;2022-07-31T12:43:01;26.70;99.90
5607;DHT22;2825;53.116;9.392;2022-07-31T12:45:37;26.60;99.90
5607;DHT22;2825;53.116;9.392;2022-07-31T12:48:04;26.60;99.90
5607;DHT22;2825;53.116;9.392;2022-07-31T12:50:31;26.60;99.90
5607;DHT22;2825;53.116;9.392;2022-07-31T12:53:00;26.50;99.90
5607;DHT22;2825;53.116;9.392;2022-07-31T12:55:27;26.40;99.90
5607;DHT22;2825;53.116;9.392;2022-07-31T12:57:54;26.40;99.90
5607;DHT22;2825;53.116;9.392;2022-07-31T13:00:21;26.40;99.90
5607;DHT22;2825;53.116;9.392;2022-07-31T13:02:48;26.30;99.90
5607;DHT22;2825;53.116;9.392;2022-07-31T13:05:14;26.30;99.90
5607;DHT22;2825;53.116;9.392;2022-07-31T13:07:40;26.30;99.90
5607;DHT22;2825;53.116;9.392;2022-07-31T13:10:07;26.20;99.90
5607;DHT22;2825;53.116;9.392;2022-07-31T13:12:33;26.10;99.90
5607;DHT22;2825;53.116;9.392;2022-07-31T13:14:58;26.00;99.90
5607;DHT22;2825;53.116;9.392;2022-07-31T13:17:27;25.90;99.90
5607;DHT22;2825;53.116;9.392;2022-07-31T13:19:53;25.90;99.90
5607;DHT22;2825;53.116;9.392;2022-07-31T13:22:19;25.80;99.90
5607;DHT22;2825;53.116;9.392;2022-07-31T13:24:44;25.80;99.90
5607;DHT22;2825;53.116;9.392;2022-07-31T13:27:10;25.70;99.90
5607;DHT22;2825;53.116;9.392;2022-07-31T13:29:36;25.60;99.90
5607;DHT22;2825;53.116;9.392;2022-07-31T13:32:02;25.50;99.90
5607;DHT22;2825;53.116;9.392;2022-07-31T13:34:27;25.30;99.90
5607;DHT22;2825;53.116;9.392;2022-07-31T13:36:54;25.20;99.90
5607;DHT22;2825;53.116;9.392;2022-07-31T13:39:20;25.10;99.90
5607;DHT22;2825;53.116;9.392;2022-07-31T13:41:46;25.00;99.90
5607;DHT22;2825;53.116;9.392;2022-07-31T13:44:12;25.00;99.90
5607;DHT22;2825;53.116;9.392;2022-07-31T13:46:38;25.00;99.90
5607;DHT22;2825;53.116;9.392;2022-07-31T13:49:04;25.00;99.90
5607;DHT22;2825;53.116;9.392;2022-07-31T13:51:33;25.10;99.90
5607;DHT22;2825;53.116;9.392;2022-07-31T13:53:59;25.20;99.90
5607;DHT22;2825;53.116;9.392;2022-07-31T13:56:25;25.30;99.90
5607;DHT22;2825;53.116;9.392;2022-07-31T13:58:53;25.40;99.90
5607;DHT22;2825;53.116;9.392;2022-07-31T14:01:19;25.50;99.90
5607;DHT22;2825;53.116;9.392;2022-07-31T14:03:44;25.50;99.90
5607;DHT22;2825;53.116;9.392;2022-07-31T14:06:10;25.40;99.90
5607;DHT22;2825;53.116;9.392;2022-07-31T14:08:36;25.40;99.90
5607;DHT22;2825;53.116;9.392;2022-07-31T14:11:02;25.40;99.90
5607;DHT22;2825;53.116;9.392;2022-07-31T14:13:28;25.30;99.90
5607;DHT22;2825;53.116;9.392;2022-07-31T14:15:54;25.20;99.90
5607;DHT22;2825;53.116;9.392;2022-07-31T14:18:20;25.20;99.90
5607;DHT22;2825;53.116;9.392;2022-07-31T14:20:48;25.20;99.90
5607;DHT22;2825;53.116;9.392;2022-07-31T14:23:13;25.20;99.90
5607;DHT22;2825;53.116;9.392;2022-07-31T14:25:40;25.10;99.90
5607;DHT22;2825;53.116;9.392;2022-07-31T14:28:07;25.00;99.90
5607;DHT22;2825;53.116;9.392;2022-07-31T14:30:33;25.00;99.90
5607;DHT22;2825;53.116;9.392;2022-07-31T14:33:00;24.90;99.90
5607;DHT22;2825;53.116;9.392;2022-07-31T14:35:26;24.90;99.90
5607;DHT22;2825;53.116;9.392;2022-07-31T14:37:52;24.90;99.90
5607;DHT22;2825;53.116;9.392;2022-07-31T14:40:18;24.80;99.90
5607;DHT22;2825;53.116;9.392;2022-07-31T14:42:43;24.70;99.90
5607;DHT22;2825;53.116;9.392;2022-07-31T14:45:10;24.70;99.90
5607;DHT22;2825;53.116;9.392;2022-07-31T14:47:36;24.60;99.90
5607;DHT22;2825;53.116;9.392;2022-07-31T14:50:03;24.50;99.90
5607;DHT22;2825;53.116;9.392;2022-07-31T14:52:30;24.40;99.90
5607;DHT22;2825;53.116;9.392;2022-07-31T14:55:00;24.30;99.90
5607;DHT22;2825;53.116;9.392;2022-07-31T14:57:26;24.10;99.90
5607;DHT22;2825;53.116;9.392;2022-07-31T14:59:52;24.00;99.90
5607;DHT22;2825;53.116;9.392;2022-07-31T15:02:18;23.90;99.90
5607;DHT22;2825;53.116;9.392;2022-07-31T15:04:44;23.80;99.90
5607;DHT22;2825;53.116;9.392;2022-07-31T15:07:10;23.70;99.90
5607;DHT22;2825;53.116;9.392;2022-07-31T15:09:36;23.70;99.90
5607;DHT22;2825;53.116;9.392;2022-07-31T15:12:01;23.60;99.90
5607;DHT22;2825;53.116;9.392;2022-07-31T15:14:30;23.50;99.90
5607;DHT22;2825;53.116;9.392;2022-07-31T15:16:57;23.40;99.90
5607;DHT22;2825;53.116;9.392;2022-07-31T15:19:23;23.30;99.90
5607;DHT22;2825;53.116;9.392;2022-07-31T15:21:49;23.30;99.90
5607;DHT22;2825;53.116;9.392;2022-07-31T15:24:15;23.30;99.90
5607;DHT22;2825;53.116;9.392;2022-07-31T15:26:40;23.20;99.90
5607;DHT22;2825;53.116;9.392;2022-07-31T15:29:06;23.10;99.90
5607;DHT22;2825;53.116;9.392;2022-07-31T15:31:32;23.00;99.90
5607;DHT22;2825;53.116;9.392;2022-07-31T15:34:00;22.90;99.90
5607;DHT22;2825;53.116;9.392;2022-07-31T15:36:26;22.80;99.90
5607;DHT22;2825;53.116;9.392;2022-07-31T15:38:52;22.70;99.90
5607;DHT22;2825;53.116;9.392;2022-07-31T15:41:17;22.70;99.90
5607;DHT22;2825;53.116;9.392;2022-07-31T15:43:43;22.60;99.90
5607;DHT22;2825;53.116;9.392;2022-07-31T15:46:09;22.60;99.90
5607;DHT22;2825;53.116;9.392;2022-07-31T15:48:36;22.50;99.90
5607;DHT22;2825;53.116;9.392;2022-07-31T15:51:03;22.40;99.90
5607;DHT22;2825;53.116;9.392;2022-07-31T15:53:28;22.30;99.90
5607;DHT22;2825;53.116;9.392;2022-07-31T15:55:54;22.20;99.90
5607;DHT22;2825;53.116;9.392;2022-07-31T15:58:21;22.00;99.90
5607;DHT22;2825;53.116;9.392;2022-07-31T16:00:47;21.90;99.90
5607;DHT22;2825;53.116;9.392;2022-07-31T16:03:13;21.80;99.90
5607;DHT22;2825;53.116;9.392;2022-07-31T16:05:38;21.80;99.90
5607;DHT22;2825;53.116;9.392;2022-07-31T16:08:05;21.70;99.90
5607;DHT22;2825;53.116;9.392;2022-07-31T16:10:31;21.70;99.90
5607;DHT22;2825;53.116;9.392;2022-07-31T16:12:57;21.60;99.90
5607;DHT22;2825;53.116;9.392;2022-07-31T16:15:22;21.60;99.90
5607;DHT22;2825;53.116;9.392;2022-07-31T16:17:48;21.40;99.90
5607;DHT22;2825;53.116;9.392;2022-07-31T16:20:16;21.40;99.90
5607;DHT22;2825;53.116;9.392;2022-07-31T16:22:45;21.20;99.90